sensor_id;sensor_type;location;lat;lon;timestamp;P1;durP1;ratioP1;P2;durP2;ratioP2
24407;SDS011;12542;50.924;4.516;2023-02-23T00:01:50;46.25;;;27.15;;
24407;SDS011;12542;50.924;4.516;2023-02-23T00:04:15;45.63;;;26.83;;
24407;SDS011;12542;50.924;4.516;2023-02-23T00:06:42;40.38;;;24.90;;
24407;SDS011;12542;50.924;4.516;2023-02-23T00:09:09;48.17;;;27.23;;
24407;SDS011;12542;50.924;4.516;2023-02-23T00:11:46;40.80;;;24.63;;
24407;SDS011;12542;50.924;4.516;2023-02-23T00:14:13;42.80;;;24.50;;
24407;SDS011;12542;50.924;4.516;2023-02-23T00:16:39;42.40;;;24.80;;
24407;SDS011;12542;50.924;4.516;2023-02-23T00:19:09;42.25;;;26.08;;
24407;SDS011;12542;50.924;4.516;2023-02-23T00:21:38;40.83;;;24.60;;
24407;SDS011;12542;50.924;4.516;2023-02-23T00:24:12;44.63;;;25.67;;
24407;SDS011;12542;50.924;4.516;2023-02-23T00:26:40;42.47;;;25.20;;
24407;SDS011;12542;50.924;4.516;2023-02-23T00:29:16;39.40;;;24.88;;
24407;SDS011;12542;50.924;4.516;2023-02-23T00:31:44;40.13;;;24.00;;
24407;SDS011;12542;50.924;4.516;2023-02-23T00:34:11;41.28;;;25.10;;
24407;SDS011;12542;50.924;4.516;2023-02-23T00:36:39;40.88;;;24.08;;
24407;SDS011;12542;50.924;4.516;2023-02-23T00:39:07;43.22;;;23.88;;
24407;SDS011;12542;50.924;4.516;2023-02-23T00:41:45;40.83;;;25.45;;
24407;SDS011;12542;50.924;4.516;2023-02-23T00:44:11;47.17;;;26.63;;
24407;SDS011;12542;50.924;4.516;2023-02-23T00:46:39;43.65;;;24.98;;
24407;SDS011;12542;50.924;4.516;2023-02-23T00:49:08;45.78;;;25.77;;
24407;SDS011;12542;50.924;4.516;2023-02-23T00:51:37;43.50;;;24.20;;
24407;SDS011;12542;50.924;4.516;2023-02-23T00:54:03;45.15;;;25.45;;
24407;SDS011;12542;50.924;4.516;2023-02-23T00:56:29;49.28;;;25.55;;
24407;SDS011;12542;50.924;4.516;2023-02-23T00:58:55;48.72;;;25.75;;
24407;SDS011;12542;50.924;4.516;2023-02-23T01:01:22;50.83;;;26.13;;
24407;SDS011;12542;50.924;4.516;2023-02-23T01:03:48;47.30;;;26.42;;
24407;SDS011;12542;50.924;4.516;2023-02-23T01:06:17;47.45;;;25.98;;
24407;SDS011;12542;50.924;4.516;2023-02-23T01:08:45;48.92;;;27.42;;
24407;SDS011;12542;50.924;4.516;2023-02-23T01:11:20;50.78;;;27.65;;
24407;SDS011;12542;50.924;4.516;2023-02-23T01:13:48;46.80;;;25.50;;
24407;SDS011;12542;50.924;4.516;2023-02-23T01:16:18;50.05;;;27.00;;
24407;SDS011;12542;50.924;4.516;2023-02-23T01:18:45;48.03;;;26.00;;
24407;SDS011;12542;50.924;4.516;2023-02-23T01:21:35;47.85;;;25.98;;
24407;SDS011;12542;50.924;4.516;2023-02-23T01:24:00;47.22;;;25.75;;
24407;SDS011;12542;50.924;4.516;2023-02-23T01:26:30;46.72;;;26.70;;
24407;SDS011;12542;50.924;4.516;2023-02-23T01:29:02;49.38;;;27.00;;
24407;SDS011;12542;50.924;4.516;2023-02-23T01:31:32;48.13;;;26.25;;
24407;SDS011;12542;50.924;4.516;2023-02-23T01:33:59;50.20;;;26.05;;
24407;SDS011;12542;50.924;4.516;2023-02-23T01:36:26;46.35;;;26.05;;
24407;SDS011;12542;50.924;4.516;2023-02-23T01:38:56;47.83;;;25.48;;
24407;SDS011;12542;50.924;4.516;2023-02-23T01:41:24;49.92;;;25.85;;
24407;SDS011;12542;50.924;4.516;2023-02-23T01:43:59;44.80;;;24.67;;
24407;SDS011;12542;50.924;4.516;2023-02-23T01:46:30;45.30;;;25.42;;
24407;SDS011;12542;50.924;4.516;2023-02-23T01:49:00;44.95;;;25.00;;
24407;SDS011;12542;50.924;4.516;2023-02-23T01:51:29;44.22;;;24.42;;
24407;SDS011;12542;50.924;4.516;2023-02-23T01:56:39;41.78;;;23.67;;
24407;SDS011;12542;50.924;4.516;2023-02-23T01:59:08;45.38;;;24.05;;
24407;SDS011;12542;50.924;4.516;2023-02-23T02:01:39;41.58;;;24.10;;
24407;SDS011;12542;50.924;4.516;2023-02-23T02:04:07;39.33;;;22.83;;
24407;SDS011;12542;50.924;4.516;2023-02-23T02:06:40;39.93;;;22.97;;
24407;SDS011;12542;50.924;4.516;2023-02-23T02:09:09;38.80;;;22.45;;
24407;SDS011;12542;50.924;4.516;2023-02-23T02:11:42;41.00;;;23.15;;
24407;SDS011;12542;50.924;4.516;2023-02-23T02:17:02;37.13;;;22.08;;
24407;SDS011;12542;50.924;4.516;2023-02-23T02:42:15;44.33;;;24.20;;
24407;SDS011;12542;50.924;4.516;2023-02-23T02:45:11;48.60;;;25.90;;
24407;SDS011;12542;50.924;4.516;2023-02-23T02:47:34;51.10;;;25.85;;
24407;SDS011;12542;50.924;4.516;2023-02-23T02:56:52;67.15;;;28.90;;
24407;SDS011;12542;50.924;4.516;2023-02-23T02:59:21;63.15;;;27.35;;
24407;SDS011;12542;50.924;4.516;2023-02-23T03:02:08;62.95;;;28.27;;
24407;SDS011;12542;50.924;4.516;2023-02-23T03:05:01;69.25;;;29.55;;
24407;SDS011;12542;50.924;4.516;2023-02-23T03:08:11;72.93;;;30.27;;
24407;SDS011;12542;50.924;4.516;2023-02-23T03:11:09;68.45;;;30.52;;
24407;SDS011;12542;50.924;4.516;2023-02-23T03:14:03;74.18;;;29.20;;
24407;SDS011;12542;50.924;4.516;2023-02-23T03:19:56;70.05;;;28.23;;
24407;SDS011;12542;50.924;4.516;2023-02-23T03:22:46;74.97;;;29.30;;
24407;SDS011;12542;50.924;4.516;2023-02-23T03:25:45;76.82;;;30.58;;
24407;SDS011;12542;50.924;4.516;2023-02-23T03:31:52;78.78;;;30.17;;
24407;SDS011;12542;50.924;4.516;2023-02-23T03:34:52;77.50;;;29.98;;
24407;SDS011;12542;50.924;4.516;2023-02-23T03:37:58;76.75;;;29.80;;
24407;SDS011;12542;50.924;4.516;2023-02-23T03:40:48;74.18;;;29.00;;
24407;SDS011;12542;50.924;4.516;2023-02-23T03:43:39;74.30;;;29.10;;
24407;SDS011;12542;50.924;4.516;2023-02-23T03:46:29;72.13;;;28.58;;
24407;SDS011;12542;50.924;4.516;2023-02-23T03:49:15;73.13;;;29.65;;
24407;SDS011;12542;50.924;4.516;2023-02-23T03:52:06;76.97;;;29.38;;
24407;SDS011;12542;50.924;4.516;2023-02-23T03:54:58;64.75;;;27.20;;
24407;SDS011;12542;50.924;4.516;2023-02-23T03:57:47;73.15;;;28.50;;
24407;SDS011;12542;50.924;4.516;2023-02-23T04:00:38;74.85;;;27.40;;
24407;SDS011;12542;50.924;4.516;2023-02-23T04:03:26;65.93;;;26.85;;
24407;SDS011;12542;50.924;4.516;2023-02-23T04:06:16;65.75;;;26.30;;
24407;SDS011;12542;50.924;4.516;2023-02-23T04:09:04;67.50;;;28.13;;
24407;SDS011;12542;50.924;4.516;2023-02-23T04:11:50;71.38;;;27.00;;
24407;SDS011;12542;50.924;4.516;2023-02-23T04:17:18;69.90;;;27.73;;
24407;SDS011;12542;50.924;4.516;2023-02-23T04:19:48;68.18;;;27.25;;
24407;SDS011;12542;50.924;4.516;2023-02-23T04:22:14;65.80;;;26.80;;
24407;SDS011;12542;50.924;4.516;2023-02-23T04:24:40;65.03;;;26.85;;
24407;SDS011;12542;50.924;4.516;2023-02-23T04:27:06;61.83;;;27.85;;
24407;SDS011;12542;50.924;4.516;2023-02-23T04:29:32;68.07;;;27.73;;
24407;SDS011;12542;50.924;4.516;2023-02-23T04:31:57;63.25;;;28.25;;
24407;SDS011;12542;50.924;4.516;2023-02-23T04:34:23;68.93;;;28.65;;
24407;SDS011;12542;50.924;4.516;2023-02-23T04:36:49;63.30;;;27.05;;
24407;SDS011;12542;50.924;4.516;2023-02-23T04:39:15;68.47;;;28.73;;
24407;SDS011;12542;50.924;4.516;2023-02-23T04:41:41;64.93;;;28.60;;
24407;SDS011;12542;50.924;4.516;2023-02-23T04:44:07;65.35;;;28.00;;
24407;SDS011;12542;50.924;4.516;2023-02-23T04:46:32;66.35;;;27.98;;
24407;SDS011;12542;50.924;4.516;2023-02-23T04:48:58;63.67;;;27.88;;
24407;SDS011;12542;50.924;4.516;2023-02-23T04:51:24;70.38;;;27.92;;
24407;SDS011;12542;50.924;4.516;2023-02-23T04:53:54;63.45;;;28.48;;
24407;SDS011;12542;50.924;4.516;2023-02-23T04:56:20;65.40;;;28.17;;
24407;SDS011;12542;50.924;4.516;2023-02-23T04:58:46;66.22;;;28.48;;
24407;SDS011;12542;50.924;4.516;2023-02-23T05:01:12;70.38;;;28.75;;
24407;SDS011;12542;50.924;4.516;2023-02-23T05:03:38;67.05;;;29.10;;
24407;SDS011;12542;50.924;4.516;2023-02-23T05:06:03;67.68;;;28.58;;
24407;SDS011;12542;50.924;4.516;2023-02-23T05:08:29;64.55;;;28.63;;
24407;SDS011;12542;50.924;4.516;2023-02-23T05:10:55;70.63;;;29.55;;
24407;SDS011;12542;50.924;4.516;2023-02-23T05:13:21;66.88;;;29.75;;
24407;SDS011;12542;50.924;4.516;2023-02-23T05:15:47;69.88;;;30.27;;
24407;SDS011;12542;50.924;4.516;2023-02-23T05:18:13;68.68;;;30.60;;
24407;SDS011;12542;50.924;4.516;2023-02-23T05:20:41;69.75;;;29.98;;
24407;SDS011;12542;50.924;4.516;2023-02-23T05:23:09;73.50;;;31.23;;
24407;SDS011;12542;50.924;4.516;2023-02-23T05:25:36;69.50;;;29.65;;
24407;SDS011;12542;50.924;4.516;2023-02-23T05:28:03;70.50;;;29.98;;
24407;SDS011;12542;50.924;4.516;2023-02-23T05:30:29;70.30;;;30.75;;
24407;SDS011;12542;50.924;4.516;2023-02-23T05:32:55;69.80;;;29.10;;
24407;SDS011;12542;50.924;4.516;2023-02-23T05:35:21;64.82;;;28.90;;
24407;SDS011;12542;50.924;4.516;2023-02-23T05:37:47;70.60;;;29.30;;
24407;SDS011;12542;50.924;4.516;2023-02-23T05:40:15;68.20;;;28.45;;
24407;SDS011;12542;50.924;4.516;2023-02-23T05:42:40;68.22;;;30.17;;
24407;SDS011;12542;50.924;4.516;2023-02-23T05:45:06;66.63;;;30.83;;
24407;SDS011;12542;50.924;4.516;2023-02-23T05:47:32;68.47;;;30.77;;
24407;SDS011;12542;50.924;4.516;2023-02-23T05:50:03;67.72;;;30.00;;
24407;SDS011;12542;50.924;4.516;2023-02-23T05:52:30;73.28;;;31.27;;
24407;SDS011;12542;50.924;4.516;2023-02-23T05:54:56;67.38;;;29.52;;
24407;SDS011;12542;50.924;4.516;2023-02-23T05:57:21;68.07;;;29.05;;
24407;SDS011;12542;50.924;4.516;2023-02-23T05:59:48;71.32;;;30.38;;
24407;SDS011;12542;50.924;4.516;2023-02-23T06:02:13;64.60;;;28.73;;
24407;SDS011;12542;50.924;4.516;2023-02-23T06:04:39;68.63;;;29.75;;
24407;SDS011;12542;50.924;4.516;2023-02-23T06:07:05;63.47;;;29.52;;
24407;SDS011;12542;50.924;4.516;2023-02-23T06:09:31;67.95;;;29.33;;
24407;SDS011;12542;50.924;4.516;2023-02-23T06:11:57;59.03;;;28.25;;
24407;SDS011;12542;50.924;4.516;2023-02-23T06:14:24;68.47;;;29.00;;
24407;SDS011;12542;50.924;4.516;2023-02-23T06:16:51;65.55;;;29.30;;
24407;SDS011;12542;50.924;4.516;2023-02-23T06:19:16;61.30;;;29.40;;
24407;SDS011;12542;50.924;4.516;2023-02-23T06:21:45;70.03;;;31.35;;
24407;SDS011;12542;50.924;4.516;2023-02-23T06:24:11;66.68;;;29.83;;
24407;SDS011;12542;50.924;4.516;2023-02-23T06:26:37;66.53;;;29.92;;
24407;SDS011;12542;50.924;4.516;2023-02-23T06:29:02;69.28;;;31.48;;
24407;SDS011;12542;50.924;4.516;2023-02-23T06:31:28;67.32;;;29.63;;
24407;SDS011;12542;50.924;4.516;2023-02-23T06:33:54;66.47;;;29.55;;
24407;SDS011;12542;50.924;4.516;2023-02-23T06:36:20;57.60;;;27.48;;
24407;SDS011;12542;50.924;4.516;2023-02-23T06:38:46;68.00;;;29.38;;
24407;SDS011;12542;50.924;4.516;2023-02-23T06:41:12;70.35;;;30.42;;
24407;SDS011;12542;50.924;4.516;2023-02-23T06:43:38;69.88;;;30.10;;
24407;SDS011;12542;50.924;4.516;2023-02-23T06:46:03;66.35;;;30.75;;
24407;SDS011;12542;50.924;4.516;2023-02-23T06:48:30;70.68;;;31.52;;
24407;SDS011;12542;50.924;4.516;2023-02-23T06:50:57;63.25;;;29.73;;
24407;SDS011;12542;50.924;4.516;2023-02-23T06:53:23;65.88;;;30.20;;
24407;SDS011;12542;50.924;4.516;2023-02-23T06:55:51;74.00;;;30.65;;
24407;SDS011;12542;50.924;4.516;2023-02-23T06:58:17;79.50;;;33.00;;
24407;SDS011;12542;50.924;4.516;2023-02-23T07:00:43;79.93;;;35.28;;
24407;SDS011;12542;50.924;4.516;2023-02-23T07:03:09;73.38;;;31.52;;
24407;SDS011;12542;50.924;4.516;2023-02-23T07:05:35;73.43;;;30.10;;
24407;SDS011;12542;50.924;4.516;2023-02-23T07:08:01;72.75;;;31.27;;
24407;SDS011;12542;50.924;4.516;2023-02-23T07:10:29;74.32;;;30.65;;
24407;SDS011;12542;50.924;4.516;2023-02-23T07:12:55;70.55;;;30.73;;
24407;SDS011;12542;50.924;4.516;2023-02-23T07:15:21;71.85;;;30.35;;
24407;SDS011;12542;50.924;4.516;2023-02-23T07:17:46;71.72;;;31.15;;
24407;SDS011;12542;50.924;4.516;2023-02-23T07:20:13;71.47;;;31.45;;
24407;SDS011;12542;50.924;4.516;2023-02-23T07:22:40;70.43;;;29.60;;
24407;SDS011;12542;50.924;4.516;2023-02-23T07:25:06;71.32;;;31.23;;
24407;SDS011;12542;50.924;4.516;2023-02-23T07:27:33;72.07;;;30.48;;
24407;SDS011;12542;50.924;4.516;2023-02-23T07:29:59;69.60;;;30.75;;
24407;SDS011;12542;50.924;4.516;2023-02-23T07:32:27;71.95;;;32.03;;
24407;SDS011;12542;50.924;4.516;2023-02-23T07:34:53;69.60;;;30.02;;
24407;SDS011;12542;50.924;4.516;2023-02-23T07:37:18;70.50;;;31.55;;
24407;SDS011;12542;50.924;4.516;2023-02-23T07:39:44;71.30;;;30.50;;
24407;SDS011;12542;50.924;4.516;2023-02-23T07:42:10;75.57;;;29.00;;
24407;SDS011;12542;50.924;4.516;2023-02-23T07:44:36;67.38;;;29.15;;
24407;SDS011;12542;50.924;4.516;2023-02-23T07:47:02;71.43;;;30.55;;
24407;SDS011;12542;50.924;4.516;2023-02-23T07:49:28;74.60;;;31.70;;
24407;SDS011;12542;50.924;4.516;2023-02-23T07:51:54;68.88;;;29.73;;
24407;SDS011;12542;50.924;4.516;2023-02-23T07:54:20;75.25;;;31.08;;
24407;SDS011;12542;50.924;4.516;2023-02-23T07:56:46;72.95;;;32.20;;
24407;SDS011;12542;50.924;4.516;2023-02-23T07:59:12;72.97;;;31.58;;
24407;SDS011;12542;50.924;4.516;2023-02-23T08:01:38;70.88;;;32.38;;
24407;SDS011;12542;50.924;4.516;2023-02-23T08:04:04;71.45;;;31.35;;
24407;SDS011;12542;50.924;4.516;2023-02-23T08:06:30;73.82;;;32.47;;
24407;SDS011;12542;50.924;4.516;2023-02-23T08:08:58;76.28;;;33.97;;
24407;SDS011;12542;50.924;4.516;2023-02-23T08:11:27;79.30;;;32.20;;
24407;SDS011;12542;50.924;4.516;2023-02-23T08:13:53;77.97;;;32.20;;
24407;SDS011;12542;50.924;4.516;2023-02-23T08:16:24;73.32;;;32.75;;
24407;SDS011;12542;50.924;4.516;2023-02-23T08:18:55;82.15;;;34.85;;
24407;SDS011;12542;50.924;4.516;2023-02-23T08:21:22;78.47;;;33.95;;
24407;SDS011;12542;50.924;4.516;2023-02-23T08:23:48;79.25;;;34.58;;
24407;SDS011;12542;50.924;4.516;2023-02-23T08:26:14;77.32;;;32.22;;
24407;SDS011;12542;50.924;4.516;2023-02-23T08:28:41;80.05;;;34.35;;
24407;SDS011;12542;50.924;4.516;2023-02-23T08:31:13;78.03;;;34.50;;
24407;SDS011;12542;50.924;4.516;2023-02-23T08:33:42;74.72;;;34.80;;
24407;SDS011;12542;50.924;4.516;2023-02-23T08:36:08;76.75;;;33.28;;
24407;SDS011;12542;50.924;4.516;2023-02-23T08:38:34;76.72;;;33.83;;
24407;SDS011;12542;50.924;4.516;2023-02-23T08:41:03;74.97;;;32.53;;
24407;SDS011;12542;50.924;4.516;2023-02-23T08:43:29;68.38;;;31.25;;
24407;SDS011;12542;50.924;4.516;2023-02-23T08:45:55;80.10;;;34.65;;
24407;SDS011;12542;50.924;4.516;2023-02-23T08:48:20;69.72;;;31.85;;
24407;SDS011;12542;50.924;4.516;2023-02-23T08:50:47;69.82;;;33.33;;
24407;SDS011;12542;50.924;4.516;2023-02-23T08:53:14;70.65;;;32.95;;
24407;SDS011;12542;50.924;4.516;2023-02-23T08:55:40;74.20;;;33.25;;
24407;SDS011;12542;50.924;4.516;2023-02-23T08:58:09;70.78;;;33.25;;
24407;SDS011;12542;50.924;4.516;2023-02-23T09:00:36;75.70;;;34.30;;
24407;SDS011;12542;50.924;4.516;2023-02-23T09:03:02;74.00;;;33.70;;
24407;SDS011;12542;50.924;4.516;2023-02-23T09:05:29;76.93;;;34.55;;
24407;SDS011;12542;50.924;4.516;2023-02-23T09:08:01;78.15;;;34.05;;
24407;SDS011;12542;50.924;4.516;2023-02-23T09:10:27;72.20;;;32.40;;
24407;SDS011;12542;50.924;4.516;2023-02-23T09:12:53;76.63;;;34.38;;
24407;SDS011;12542;50.924;4.516;2023-02-23T09:15:19;81.20;;;36.10;;
24407;SDS011;12542;50.924;4.516;2023-02-23T09:17:45;78.82;;;35.83;;
24407;SDS011;12542;50.924;4.516;2023-02-23T09:20:12;84.75;;;36.25;;
24407;SDS011;12542;50.924;4.516;2023-02-23T09:22:40;81.45;;;37.75;;
24407;SDS011;12542;50.924;4.516;2023-02-23T09:25:13;90.78;;;36.80;;
24407;SDS011;12542;50.924;4.516;2023-02-23T09:27:42;86.63;;;37.97;;
24407;SDS011;12542;50.924;4.516;2023-02-23T09:30:08;76.95;;;35.88;;
24407;SDS011;12542;50.924;4.516;2023-02-23T09:32:34;79.00;;;35.97;;
24407;SDS011;12542;50.924;4.516;2023-02-23T09:35:01;82.45;;;37.97;;
24407;SDS011;12542;50.924;4.516;2023-02-23T09:37:29;83.28;;;37.35;;
24407;SDS011;12542;50.924;4.516;2023-02-23T09:39:55;79.72;;;37.20;;
24407;SDS011;12542;50.924;4.516;2023-02-23T09:42:35;86.25;;;38.35;;
24407;SDS011;12542;50.924;4.516;2023-02-23T09:50:29;87.65;;;39.53;;
24407;SDS011;12542;50.924;4.516;2023-02-23T09:55:53;88.68;;;39.97;;
24407;SDS011;12542;50.924;4.516;2023-02-23T10:03:55;84.70;;;37.72;;
24407;SDS011;12542;50.924;4.516;2023-02-23T10:06:34;85.55;;;38.33;;
24407;SDS011;12542;50.924;4.516;2023-02-23T10:22:56;90.25;;;41.10;;
24407;SDS011;12542;50.924;4.516;2023-02-23T10:25:29;95.07;;;43.15;;
24407;SDS011;12542;50.924;4.516;2023-02-23T10:27:59;90.25;;;40.08;;
24407;SDS011;12542;50.924;4.516;2023-02-23T10:30:28;88.30;;;40.25;;
24407;SDS011;12542;50.924;4.516;2023-02-23T10:33:15;91.63;;;41.35;;
24407;SDS011;12542;50.924;4.516;2023-02-23T10:35:45;87.50;;;40.70;;
24407;SDS011;12542;50.924;4.516;2023-02-23T10:38:15;91.03;;;41.63;;
24407;SDS011;12542;50.924;4.516;2023-02-23T10:40:43;87.18;;;39.83;;
24407;SDS011;12542;50.924;4.516;2023-02-23T10:43:11;81.82;;;37.60;;
24407;SDS011;12542;50.924;4.516;2023-02-23T10:45:40;80.60;;;37.42;;
24407;SDS011;12542;50.924;4.516;2023-02-23T10:48:18;71.97;;;34.75;;
24407;SDS011;12542;50.924;4.516;2023-02-23T10:50:44;75.88;;;36.25;;
24407;SDS011;12542;50.924;4.516;2023-02-23T10:53:15;68.03;;;33.67;;
24407;SDS011;12542;50.924;4.516;2023-02-23T10:58:29;72.70;;;33.80;;
24407;SDS011;12542;50.924;4.516;2023-02-23T11:03:26;64.97;;;31.05;;
24407;SDS011;12542;50.924;4.516;2023-02-23T11:05:56;63.40;;;31.50;;
24407;SDS011;12542;50.924;4.516;2023-02-23T11:08:26;72.75;;;32.72;;
24407;SDS011;12542;50.924;4.516;2023-02-23T11:10:59;63.88;;;32.00;;
24407;SDS011;12542;50.924;4.516;2023-02-23T11:13:32;67.38;;;33.40;;
24407;SDS011;12542;50.924;4.516;2023-02-23T11:16:25;62.22;;;30.05;;
24407;SDS011;12542;50.924;4.516;2023-02-23T11:18:57;63.33;;;31.38;;
24407;SDS011;12542;50.924;4.516;2023-02-23T11:21:28;62.67;;;30.35;;
24407;SDS011;12542;50.924;4.516;2023-02-23T11:26:54;59.33;;;30.25;;
24407;SDS011;12542;50.924;4.516;2023-02-23T11:29:37;59.72;;;29.40;;
24407;SDS011;12542;50.924;4.516;2023-02-23T11:32:26;63.38;;;30.17;;
24407;SDS011;12542;50.924;4.516;2023-02-23T11:37:46;66.55;;;31.23;;
24407;SDS011;12542;50.924;4.516;2023-02-23T11:45:46;68.30;;;31.08;;
24407;SDS011;12542;50.924;4.516;2023-02-23T11:48:39;68.65;;;32.10;;
24407;SDS011;12542;50.924;4.516;2023-02-23T11:51:21;69.78;;;32.50;;
24407;SDS011;12542;50.924;4.516;2023-02-23T11:53:54;72.25;;;34.75;;
24407;SDS011;12542;50.924;4.516;2023-02-23T11:56:21;71.40;;;33.00;;
24407;SDS011;12542;50.924;4.516;2023-02-23T11:58:50;73.30;;;35.13;;
24407;SDS011;12542;50.924;4.516;2023-02-23T12:01:33;71.70;;;32.90;;
24407;SDS011;12542;50.924;4.516;2023-02-23T12:04:30;74.35;;;33.50;;
24407;SDS011;12542;50.924;4.516;2023-02-23T12:13:11;79.63;;;37.38;;
24407;SDS011;12542;50.924;4.516;2023-02-23T12:15:43;80.72;;;37.20;;
24407;SDS011;12542;50.924;4.516;2023-02-23T12:18:19;75.70;;;36.08;;
24407;SDS011;12542;50.924;4.516;2023-02-23T12:20:57;78.50;;;37.00;;
24407;SDS011;12542;50.924;4.516;2023-02-23T12:23:30;83.63;;;37.28;;
24407;SDS011;12542;50.924;4.516;2023-02-23T12:26:03;79.32;;;37.45;;
24407;SDS011;12542;50.924;4.516;2023-02-23T12:33:49;73.30;;;35.08;;
24407;SDS011;12542;50.924;4.516;2023-02-23T12:36:30;68.70;;;33.78;;
24407;SDS011;12542;50.924;4.516;2023-02-23T12:49:55;59.70;;;30.52;;
24407;SDS011;12542;50.924;4.516;2023-02-23T12:52:31;60.28;;;31.92;;
24407;SDS011;12542;50.924;4.516;2023-02-23T12:55:09;63.03;;;30.58;;
24407;SDS011;12542;50.924;4.516;2023-02-23T12:57:57;62.95;;;30.65;;
24407;SDS011;12542;50.924;4.516;2023-02-23T13:00:38;61.13;;;31.10;;
24407;SDS011;12542;50.924;4.516;2023-02-23T13:21:43;67.13;;;35.60;;
24407;SDS011;12542;50.924;4.516;2023-02-23T13:24:25;66.75;;;33.03;;
24407;SDS011;12542;50.924;4.516;2023-02-23T13:27:11;63.88;;;33.25;;
24407;SDS011;12542;50.924;4.516;2023-02-23T13:30:00;63.30;;;32.08;;
24407;SDS011;12542;50.924;4.516;2023-02-23T13:32:28;62.97;;;32.72;;
24407;SDS011;12542;50.924;4.516;2023-02-23T13:34:58;69.68;;;34.08;;
24407;SDS011;12542;50.924;4.516;2023-02-23T13:37:27;67.53;;;32.78;;
24407;SDS011;12542;50.924;4.516;2023-02-23T13:40:35;67.32;;;34.72;;
24407;SDS011;12542;50.924;4.516;2023-02-23T13:48:56;70.18;;;34.05;;
24407;SDS011;12542;50.924;4.516;2023-02-23T13:51:38;66.93;;;32.83;;
24407;SDS011;12542;50.924;4.516;2023-02-23T13:56:41;63.42;;;31.05;;
24407;SDS011;12542;50.924;4.516;2023-02-23T13:59:17;62.65;;;32.28;;
24407;SDS011;12542;50.924;4.516;2023-02-23T14:01:46;73.40;;;33.63;;
24407;SDS011;12542;50.924;4.516;2023-02-23T14:07:14;58.10;;;26.90;;
24407;SDS011;12542;50.924;4.516;2023-02-23T14:09:57;54.78;;;25.15;;
24407;SDS011;12542;50.924;4.516;2023-02-23T14:12:33;51.42;;;25.33;;
24407;SDS011;12542;50.924;4.516;2023-02-23T14:28:47;50.13;;;23.17;;
24407;SDS011;12542;50.924;4.516;2023-02-23T14:31:33;49.53;;;23.13;;
24407;SDS011;12542;50.924;4.516;2023-02-23T14:34:02;50.92;;;23.75;;
24407;SDS011;12542;50.924;4.516;2023-02-23T14:36:45;51.28;;;23.92;;
24407;SDS011;12542;50.924;4.516;2023-02-23T14:39:15;52.45;;;24.63;;
24407;SDS011;12542;50.924;4.516;2023-02-23T14:41:49;50.80;;;23.73;;
24407;SDS011;12542;50.924;4.516;2023-02-23T14:44:30;50.30;;;24.40;;
24407;SDS011;12542;50.924;4.516;2023-02-23T14:47:11;52.13;;;23.27;;
24407;SDS011;12542;50.924;4.516;2023-02-23T14:49:41;48.67;;;23.02;;
24407;SDS011;12542;50.924;4.516;2023-02-23T14:55:15;54.08;;;24.65;;
24407;SDS011;12542;50.924;4.516;2023-02-23T14:57:46;43.60;;;22.67;;
24407;SDS011;12542;50.924;4.516;2023-02-23T15:02:39;48.33;;;23.02;;
24407;SDS011;12542;50.924;4.516;2023-02-23T15:05:16;47.67;;;23.17;;
24407;SDS011;12542;50.924;4.516;2023-02-23T15:07:42;45.20;;;22.30;;
24407;SDS011;12542;50.924;4.516;2023-02-23T15:10:11;38.45;;;20.10;;
24407;SDS011;12542;50.924;4.516;2023-02-23T15:12:48;42.30;;;19.27;;
24407;SDS011;12542;50.924;4.516;2023-02-23T15:15:19;37.85;;;18.75;;
24407;SDS011;12542;50.924;4.516;2023-02-23T15:17:48;35.88;;;18.63;;
24407;SDS011;12542;50.924;4.516;2023-02-23T15:20:18;33.78;;;17.80;;
24407;SDS011;12542;50.924;4.516;2023-02-23T15:22:50;37.33;;;19.65;;
24407;SDS011;12542;50.924;4.516;2023-02-23T15:27:50;35.92;;;18.33;;
24407;SDS011;12542;50.924;4.516;2023-02-23T15:30:25;34.95;;;18.75;;
24407;SDS011;12542;50.924;4.516;2023-02-23T15:33:09;36.90;;;17.77;;
24407;SDS011;12542;50.924;4.516;2023-02-23T15:35:44;34.95;;;17.27;;
24407;SDS011;12542;50.924;4.516;2023-02-23T15:38:15;32.45;;;17.60;;
24407;SDS011;12542;50.924;4.516;2023-02-23T15:40:46;29.70;;;16.23;;
24407;SDS011;12542;50.924;4.516;2023-02-23T15:43:19;34.38;;;18.55;;
24407;SDS011;12542;50.924;4.516;2023-02-23T15:45:48;33.00;;;17.60;;
24407;SDS011;12542;50.924;4.516;2023-02-23T15:48:18;33.78;;;17.35;;
24407;SDS011;12542;50.924;4.516;2023-02-23T15:50:47;26.45;;;14.77;;
24407;SDS011;12542;50.924;4.516;2023-02-23T15:56:09;30.63;;;17.13;;
24407;SDS011;12542;50.924;4.516;2023-02-23T15:58:46;27.30;;;15.63;;
24407;SDS011;12542;50.924;4.516;2023-02-23T16:01:21;24.05;;;14.15;;
24407;SDS011;12542;50.924;4.516;2023-02-23T16:04:05;27.00;;;17.25;;
24407;SDS011;12542;50.924;4.516;2023-02-23T16:06:44;21.40;;;13.43;;
24407;SDS011;12542;50.924;4.516;2023-02-23T16:11:59;21.52;;;12.68;;
24407;SDS011;12542;50.924;4.516;2023-02-23T16:14:33;18.70;;;12.35;;
24407;SDS011;12542;50.924;4.516;2023-02-23T16:23:22;16.95;;;11.32;;
24407;SDS011;12542;50.924;4.516;2023-02-23T16:26:00;17.85;;;12.20;;
24407;SDS011;12542;50.924;4.516;2023-02-23T16:28:31;19.70;;;12.00;;
24407;SDS011;12542;50.924;4.516;2023-02-23T16:31:01;17.25;;;11.13;;
24407;SDS011;12542;50.924;4.516;2023-02-23T16:41:03;19.85;;;12.90;;
24407;SDS011;12542;50.924;4.516;2023-02-23T16:43:34;39.80;;;21.45;;
24407;SDS011;12542;50.924;4.516;2023-02-23T16:46:00;22.55;;;14.75;;
24407;SDS011;12542;50.924;4.516;2023-02-23T16:48:26;22.55;;;13.95;;
24407;SDS011;12542;50.924;4.516;2023-02-23T16:50:52;20.83;;;13.13;;
24407;SDS011;12542;50.924;4.516;2023-02-23T16:53:18;22.05;;;14.15;;
24407;SDS011;12542;50.924;4.516;2023-02-23T16:55:53;23.90;;;13.98;;
24407;SDS011;12542;50.924;4.516;2023-02-23T16:58:24;19.45;;;13.98;;
24407;SDS011;12542;50.924;4.516;2023-02-23T17:00:53;22.42;;;13.27;;
24407;SDS011;12542;50.924;4.516;2023-02-23T17:03:21;23.25;;;14.23;;
24407;SDS011;12542;50.924;4.516;2023-02-23T17:05:48;21.40;;;13.68;;
24407;SDS011;12542;50.924;4.516;2023-02-23T17:08:14;19.98;;;13.18;;
24407;SDS011;12542;50.924;4.516;2023-02-23T17:10:40;24.58;;;15.82;;
24407;SDS011;12542;50.924;4.516;2023-02-23T17:13:12;21.98;;;13.90;;
24407;SDS011;12542;50.924;4.516;2023-02-23T17:15:47;20.77;;;13.60;;
24407;SDS011;12542;50.924;4.516;2023-02-23T17:18:16;22.58;;;14.02;;
24407;SDS011;12542;50.924;4.516;2023-02-23T17:20:43;21.67;;;13.05;;
24407;SDS011;12542;50.924;4.516;2023-02-23T17:23:09;19.45;;;13.88;;
24407;SDS011;12542;50.924;4.516;2023-02-23T17:25:35;20.23;;;13.60;;
24407;SDS011;12542;50.924;4.516;2023-02-23T17:28:01;19.15;;;13.05;;
24407;SDS011;12542;50.924;4.516;2023-02-23T17:30:27;17.70;;;11.20;;
24407;SDS011;12542;50.924;4.516;2023-02-23T17:32:56;19.85;;;13.20;;
24407;SDS011;12542;50.924;4.516;2023-02-23T17:35:22;24.90;;;13.38;;
24407;SDS011;12542;50.924;4.516;2023-02-23T17:37:49;18.88;;;12.80;;
24407;SDS011;12542;50.924;4.516;2023-02-23T17:40:20;21.20;;;12.95;;
24407;SDS011;12542;50.924;4.516;2023-02-23T17:42:56;20.73;;;11.75;;
24407;SDS011;12542;50.924;4.516;2023-02-23T17:45:24;17.35;;;12.40;;
24407;SDS011;12542;50.924;4.516;2023-02-23T17:47:50;18.38;;;12.25;;